Latest Coastal Weather Observations for Low Head

IDT60701

Issued at 3:12 am EST Tuesday 27 September 2016 (issued every 10 minutes, with the page automatically refreshed every 10 minutes)

About coastal observations | Map of coastal stations | Coastal observations for TAS | Marine services | Other Formats
Station Details ID: 091293 Name: LOW HEAD Lat: -41.05 Lon: 146.79 Height: 3.0 m
Data from the previous 72 hours. | See also: Recent months at Low Head
Date/Time
EST
Temp
°C
Wind Pressure Rain since
9am
mm
Weather Cloud Vis
km
Sea
Height
m
Swell
Dir  Spd
kts
Gust
kts
hPa Trend Height
m
Period
s
Dir
27/03:00am 8.1 SSE 7 8 1007.5 - 0.0 - - - - - - -
27/02:30am 8.3 SSE 7 9 1007.8 - 0.0 - - - - - - -
27/02:00am 8.0 SSE 8 9 1008.1 - 0.0 - - - - - - -
27/01:30am 8.1 SSE 8 9 1008.3 - 0.0 - - - - - - -
27/01:00am 8.0 SSE 8 9 1008.5 - 0.0 - - - - - - -
27/12:30am 8.1 SE 7 8 1008.7 - 0.0 - - - - - - -
27/12:00am 8.3 SSE 7 7 1008.9 - 0.0 - - - - - - -
 
Date/Time
EST
Temp
°C
Wind Pressure Rain since
9am
mm
Weather Cloud Vis
km
Sea
Height
m
Swell
Dir  Spd
kts
Gust
kts
hPa Trend Height
m
Period
s
Dir
26/11:30pm 8.6 SE 6 7 1009.1 - 0.0 - - - - - - -
26/11:00pm 8.8 SE 5 6 1009.3 - 0.0 - - - - - - -
26/10:30pm 9.3 ESE 7 7 1009.5 - 0.0 - - - - - - -
26/10:00pm 9.6 ESE 5 7 1009.7 - 0.0 - - - - - - -
26/09:30pm 11.4 N 5 6 1009.7 - 0.0 - - - - - - -
26/09:00pm 11.6 NNW 6 7 1009.7 - 0.0 - - - - - - -
26/08:30pm 11.2 NW 6 7 1009.7 - 0.0 - - - - - - -
26/08:00pm 11.3 NW 7 9 1009.8 - 0.0 - - - - - - -
26/07:30pm 11.5 NW 8 9 1009.6 - 0.0 - - - - - - -
26/07:00pm 11.5 WNW 8 9 1009.4 - 0.0 - - - - - - -
26/06:30pm 11.9 NW 7 9 1009.2 - 0.0 - - - - - - -
26/06:00pm 12.1 NW 8 10 1009.4 - 0.0 - - - - - - -
26/05:30pm 12.4 NW 9 12 1009.3 - 0.0 - - - - - - -
26/05:00pm 12.8 NW 11 13 1009.3 - 0.0 - - - - - - -
26/04:30pm 13.0 NNW 10 12 1009.1 - 0.0 - - - - - - -
26/04:00pm 12.9 NNW 10 11 1009.1 - 0.0 - - - - - - -
26/03:30pm 13.3 NNW 9 11 1009.1 - 0.0 - - - - - - -
26/03:00pm 13.8 NW 9 11 1009.3 - 0.0 - - - - - - -
26/02:30pm 13.7 N 8 10 1009.4 - 0.0 - - - - - - -
26/02:00pm 13.7 N 8 10 1009.6 - 0.0 - - - - - - -
26/01:30pm 13.3 N 6 8 1009.7 - 0.0 - - - - - - -
26/01:00pm 13.5 NNW 6 7 1009.9 - 0.0 - - - - - - -
26/12:30pm 13.5 NW 6 7 1010.3 - 0.0 - - - - - - -
26/12:00pm 13.3 NW 6 7 1010.6 - 0.0 - - - - - - -
26/11:30am 12.7 NW 6 7 1010.8 - 0.0 - - - - - - -
26/11:00am 12.0 NNW 6 7 1011.0 - 0.0 - - - - - - -
26/10:30am 12.1 NW 6 7 1011.2 - 0.0 - - - - - - -
26/10:00am 11.7 N 4 5 1011.4 - 0.0 - - - - - - -
26/09:30am 10.4 N 3 4 1011.6 - 0.0 - - - - - - -
26/09:00am 9.2 CALM 0 3 1011.7 - 0.0 - - - - - - -
26/08:30am 8.6 S 4 6 1011.7 - 0.0 - - - - - - -
26/08:00am 7.9 CALM 0 0 1011.6 - 0.0 - - - - - - -
26/07:30am 7.2 E 3 4 1011.7 - 0.0 - - - - - - -
26/07:00am 6.1 SSE 6 7 1011.7 - 0.0 - - - - - - -
26/06:30am 6.1 SSE 5 7 1011.4 - 0.0 - - - - - - -
26/06:00am 6.5 SSE 5 6 1011.2 - 0.0 - - - - - - -
26/05:30am 6.7 SSE 5 6 1010.9 - 0.0 - - - - - - -
26/05:00am 7.0 SSE 5 6 1010.8 - 0.0 - - - - - - -
26/04:30am 8.1 S 3 4 1010.7 - 0.0 - - - - - - -
26/04:00am 8.9 SW 8 9 1010.6 - 0.0 - - - - - - -
26/03:30am 9.5 WSW 11 13 1010.5 - 0.0 - - - - - - -
26/03:00am 10.1 WSW 11 15 1010.6 - 0.0 - - - - - - -
26/02:30am 9.1 WSW 12 15 1010.7 - 0.0 - - - - - - -
26/02:00am 9.5 WSW 15 17 1010.9 - 0.0 - - - - - - -
26/01:30am 9.3 WSW 13 15 1010.9 - 0.0 - - - - - - -
26/01:00am 9.0 WSW 11 14 1011.1 - 0.0 - - - - - - -
26/12:30am 9.6 WSW 13 16 1011.1 - 0.0 - - - - - - -
26/12:00am 9.9 WSW 14 16 1011.0 - 0.0 - - - - - - -
 
Date/Time
EST
Temp
°C
Wind Pressure Rain since
9am
mm
Weather Cloud Vis
km
Sea
Height
m
Swell
Dir  Spd
kts
Gust
kts
hPa Trend Height
m
Period
s
Dir
25/11:30pm 10.2 W 15 18 1011.1 - 0.0 - - - - - - -
25/11:00pm 10.1 W 16 18 1010.9 - 0.0 - - - - - - -
25/10:30pm 10.1 WSW 12 14 1010.9 - 0.0 - - - - - - -
25/10:00pm 10.4 WSW 14 17 1010.8 - 0.0 - - - - - - -
25/09:30pm 10.6 WSW 15 17 1010.6 - 0.0 - - - - - - -
25/09:00pm 10.7 WSW 13 15 1010.4 - 0.0 - - - - - - -
25/08:30pm 11.1 WSW 13 15 1010.0 - 0.0 - - - - - - -
25/08:00pm 11.3 WSW 12 15 1009.8 - 0.0 - - - - - - -
25/07:30pm 11.9 WSW 17 20 1009.4 - 0.0 - - - - - - -
25/07:00pm 12.5 WSW 17 19 1008.7 - 0.0 - - - - - - -
25/06:30pm 13.0 WSW 14 16 1008.1 - 0.0 - - - - - - -
25/06:00pm 13.5 WSW 14 18 1007.6 - 0.0 - - - - - - -
25/05:30pm 13.8 WSW 17 21 1007.3 - 0.0 - - - - - - -
25/05:00pm 13.9 WSW 19 22 1006.8 - 0.0 - - - - - - -
25/04:30pm 14.0 WSW 20 25 1006.3 - 0.0 - - - - - - -
25/04:00pm 13.8 W 22 25 1006.2 - 0.0 - - - - - - -
25/03:30pm 14.0 W 23 27 1005.9 - 0.0 - - - - - - -
25/03:00pm 14.0 W 24 28 1005.7 - 0.0 - - - - - - -
25/02:30pm 14.1 WNW 23 26 1005.7 - 0.0 - - - - - - -
25/02:00pm 14.2 WNW 22 25 1005.5 - 0.0 - - - - - - -
25/01:30pm 13.8 W 23 26 1005.4 - 0.0 - - - - - - -
25/01:00pm 13.9 WNW 18 24 1005.5 - 0.0 - - - - - - -
25/12:30pm 13.6 W 23 26 1005.4 - 0.0 - - - - - - -
25/12:00pm 13.4 W 22 26 1005.3 - 0.0 - - - - - - -
25/11:30am 13.7 WNW 21 26 1005.3 - 0.0 - - - - - - -
25/11:00am 13.3 W 21 25 1005.2 - 0.0 - - - - - - -
25/10:30am 13.1 WNW 19 22 1005.0 - 0.0 - - - - - - -
25/10:00am 12.7 W 20 23 1005.0 - 0.0 - - - - - - -
25/09:30am 12.4 W 22 25 1004.9 - 0.0 - - - - - - -
25/09:00am 12.0 W 21 25 1004.6 - 2.0 - - - - - - -
25/08:30am 12.0 W 23 27 1004.4 - 2.0 - - - - - - -
25/08:00am 11.9 W 21 26 1004.0 - 2.0 - - - - - - -
25/07:30am 12.0 W 21 25 1003.5 - 2.0 - - - - - - -
25/07:00am 11.9 W 23 27 1003.3 - 2.0 - - - - - - -
25/06:30am 12.0 W 24 28 1002.9 - 2.0 - - - - - - -
25/06:00am 11.9 WNW 25 29 1002.3 - 2.0 Recent precip. - - - - - -
25/05:30am 11.9 WNW 19 24 1002.2 - 1.8 - - - - - - -
25/05:00am 12.4 NW 14 17 1002.1 - 1.8 - - - - - - -
25/04:30am 12.6 NNW 11 14 1002.1 - 0.8 - - - - - - -
25/04:00am 12.7 NNW 14 17 1002.2 - 0.8 - - - - - - -
25/03:30am 12.8 NNW 10 11 1002.2 - 0.8 - - - - - - -
25/03:00am 12.8 NNW 9 10 1002.6 - 0.8 - - - - - - -
25/02:30am 12.9 NNW 12 15 1003.1 - 0.8 - - - - - - -
25/02:00am 12.8 NW 14 17 1003.6 - 0.8 - - - - - - -
25/01:30am 12.9 NW 16 22 1004.0 - 0.4 - - - - - - -
25/01:00am 12.8 NE 12 15 1003.9 - 0.4 - - - - - - -
25/12:30am 12.7 ENE 13 14 1004.0 - 0.0 - - - - - - -
25/12:00am 12.3 ENE 8 9 1004.2 - 0.0 - - - - - - -
 
Date/Time
EST
Temp
°C
Wind Pressure Rain since
9am
mm
Weather Cloud Vis
km
Sea
Height
m
Swell
Dir  Spd
kts
Gust
kts
hPa Trend Height
m
Period
s
Dir
24/11:30pm 12.1 ENE 8 10 1004.5 - 0.0 - - - - - - -
24/11:00pm 11.7 ENE 6 7 1004.7 - 0.0 - - - - - - -
24/10:30pm 11.5 E 7 8 1004.8 - 0.0 - - - - - - -
24/10:00pm 11.8 ESE 6 8 1005.1 - 0.0 - - - - - - -
24/09:30pm 11.7 ESE 6 7 1005.4 - 0.0 - - - - - - -
24/09:00pm 12.0 E 8 9 1005.6 - 0.0 - - - - - - -
24/08:30pm 12.3 E 7 8 1005.7 - 0.0 - - - - - - -
24/08:00pm 12.4 E 7 7 1005.9 - 0.0 - - - - - - -
24/07:30pm 12.8 E 8 9 1005.8 - 0.0 - - - - - - -
24/07:00pm 13.2 ENE 6 7 1005.8 - 0.0 - - - - - - -
24/06:30pm 13.1 NNE 5 7 1005.8 - 0.0 - - - - - - -
24/06:00pm 13.2 NNE 5 6 1006.0 - 0.0 - - - - - - -
24/05:30pm 13.3 N 6 7 1006.2 - 0.0 - - - - - - -
24/05:00pm 13.6 N 8 9 1006.3 - 0.0 - - - - - - -
24/04:30pm 13.5 NNE 8 9 1006.3 - 0.0 - - - - - - -
24/04:00pm 13.8 NNE 9 10 1006.1 - 0.0 - - - - - - -
24/03:30pm 14.1 NE 10 11 1006.1 - 0.0 - - - - - - -
24/03:00pm 14.2 NE 10 11 1006.1 - 0.0 - - - - - - -
24/02:30pm 14.3 NE 11 13 1006.3 - 0.0 - - - - - - -
24/02:00pm 14.3 NE 13 15 1006.6 - 0.0 - - - - - - -
24/01:30pm 14.3 NE 12 14 1007.0 - 0.0 - - - - - - -
24/01:00pm 14.3 NE 14 17 1007.4 - 0.0 - - - - - - -
24/12:30pm 14.1 NE 15 16 1007.8 - 0.0 - - - - - - -
24/12:00pm 13.8 ENE 15 17 1008.3 - 0.0 - - - - - - -
24/11:30am 13.6 ENE 16 18 1008.7 - 0.0 - - - - - - -
24/11:00am 14.0 ENE 17 19 1009.1 - 0.0 - - - - - - -
24/10:30am 13.9 ENE 18 21 1009.4 - 0.0 - - - - - - -
24/10:00am 13.6 ENE 17 19 1009.9 - 0.0 - - - - - - -
24/09:30am 13.4 ENE 17 19 1010.2 - 0.0 - - - - - - -
24/09:00am 13.2 ENE 15 18 1010.5 - 0.0 - - - - - - -
24/08:30am 12.7 E 10 12 1010.8 - 0.0 - - - - - - -
24/08:00am 12.0 E 7 8 1011.0 - 0.0 - - - - - - -
24/07:30am 10.8 SSE 6 7 1011.3 - 0.0 - - - - - - -
24/07:00am 10.5 SE 6 9 1011.4 - 0.0 - - - - - - -
24/06:30am 9.9 SSE 7 8 1011.4 - 0.0 - - - - - - -
24/06:00am 9.3 SSE 8 9 1011.3 - 0.0 - - - - - - -
24/05:30am 9.2 SSE 8 10 1011.4 - 0.0 - - - - - - -
24/05:00am 9.3 SSE 10 11 1011.4 - 0.0 - - - - - - -
24/04:30am 9.0 SSE 8 10 1011.4 - 0.0 - - - - - - -
24/04:00am 9.0 SSE 8 10 1011.6 - 0.0 - - - - - - -
24/03:30am 9.1 SSE 8 10 1011.7 - 0.0 - - - - - - -

Other Formats:

Comma delimited format used in spreadsheet applications
http://www.bom.gov.au/fwo/IDT60701/IDT60701.95964.axf

JavaScript Object Notation format (JSON) in row-major order
http://www.bom.gov.au/fwo/IDT60701/IDT60701.95964.json